createdAt,value
2017-07-10T00:00:05.098Z,64.34
2017-07-10T00:01:14.021Z,64.43
2017-07-10T00:02:22.979Z,64.43
2017-07-10T00:03:31.871Z,64.53
2017-07-10T00:04:40.794Z,64.63
2017-07-10T00:05:49.712Z,64.25
2017-07-10T00:06:58.641Z,64.43
2017-07-10T00:08:07.567Z,64.66
2017-07-10T00:09:16.487Z,64.63
2017-07-10T00:10:25.414Z,64.73
2017-07-10T00:11:34.332Z,65.01
2017-07-10T00:12:43.255Z,65.2
2017-07-10T00:13:52.179Z,65.2
2017-07-10T00:15:01.188Z,65.2
2017-07-10T00:16:10.106Z,65.4
2017-07-10T00:17:19.026Z,65.5
2017-07-10T00:18:27.955Z,65.69
2017-07-10T00:19:37.206Z,65.88
2017-07-10T00:20:46.129Z,66.27
2017-07-10T00:21:55.047Z,65.97
2017-07-10T00:23:03.965Z,66.27
2017-07-10T00:24:12.889Z,66.74
2017-07-10T00:25:21.810Z,66.55
2017-07-10T00:26:30.736Z,66.36
2017-07-10T00:27:39.664Z,66.46
2017-07-10T00:28:48.582Z,67.03
2017-07-10T00:29:57.564Z,66.46
2017-07-10T00:31:06.427Z,66.46
2017-07-10T00:32:15.346Z,67.03
2017-07-10T00:33:24.273Z,67.13
2017-07-10T00:34:33.190Z,67.42
2017-07-10T00:35:42.115Z,67.13
2017-07-10T00:36:51.038Z,67.22
2017-07-10T00:37:59.954Z,67.29
2017-07-10T00:39:08.876Z,67.77
2017-07-10T00:40:17.802Z,67.96
2017-07-10T00:41:26.717Z,67.58
2017-07-10T00:42:35.642Z,67.48
2017-07-10T00:43:44.561Z,68.06
2017-07-10T00:44:53.571Z,68.25
2017-07-10T00:46:02.490Z,68.35
2017-07-10T00:47:11.412Z,68.35
2017-07-10T00:48:20.336Z,69.02
2017-07-10T00:49:29.257Z,68.83
2017-07-10T00:50:38.172Z,68.92
2017-07-10T00:51:47.096Z,69.21
2017-07-10T00:52:56.014Z,69.21
2017-07-10T00:54:04.934Z,69.21
2017-07-10T00:55:13.857Z,69.21
2017-07-10T00:56:22.781Z,69.69
2017-07-10T00:57:31.711Z,69.6
2017-07-10T00:58:40.631Z,69.69
2017-07-10T00:59:49.554Z,69.89
2017-07-10T01:00:58.472Z,69.98
2017-07-10T01:02:07.817Z,69.98
2017-07-10T01:03:16.742Z,69.75
2017-07-10T01:04:25.672Z,70.65
2017-07-10T01:05:34.602Z,70.33
2017-07-10T01:06:43.518Z,70.33
2017-07-10T01:07:52.442Z,70.14
2017-07-10T01:09:01.367Z,70.33
2017-07-10T01:10:10.609Z,71
2017-07-10T01:11:19.533Z,70.9
2017-07-10T01:12:28.455Z,70.81
2017-07-10T01:13:37.382Z,70.72
2017-07-10T01:14:46.295Z,70.62
2017-07-10T01:15:55.213Z,70.9
2017-07-10T01:17:04.131Z,71
2017-07-10T01:18:13.055Z,71
2017-07-10T01:19:21.974Z,70.52
2017-07-10T01:20:30.900Z,70.52
2017-07-10T01:21:39.827Z,70.72
2017-07-10T01:22:48.746Z,70.62
2017-07-10T01:23:57.666Z,70.62
2017-07-10T01:25:06.582Z,70.62
2017-07-10T01:26:15.507Z,70.72
2017-07-10T01:27:24.434Z,70.72
2017-07-10T01:28:33.355Z,70.52
2017-07-10T01:29:42.277Z,70.9
2017-07-10T01:30:51.196Z,70.9
2017-07-10T01:32:00.118Z,70.9
2017-07-10T01:33:09.039Z,70.72
2017-07-10T01:34:17.960Z,71
2017-07-10T01:35:26.881Z,70.9
2017-07-10T01:36:35.799Z,70.72
2017-07-10T01:37:44.806Z,70.9
2017-07-10T01:38:53.727Z,70.62
2017-07-10T01:40:02.649Z,70.9
2017-07-10T01:41:11.570Z,70.9
2017-07-10T01:42:20.488Z,70.97
2017-07-10T01:43:29.413Z,71.35
2017-07-10T01:44:38.332Z,70.62
2017-07-10T01:45:47.255Z,70.58
2017-07-10T01:46:56.173Z,70.68
2017-07-10T01:48:05.090Z,71
2017-07-10T01:49:14.013Z,71
2017-07-10T01:50:23.027Z,70.9
2017-07-10T01:51:31.953Z,70.9
2017-07-10T01:52:40.871Z,70.97
2017-07-10T01:53:49.788Z,70.81
2017-07-10T01:54:58.706Z,70.87
2017-07-10T01:56:07.627Z,70.78
2017-07-10T01:57:16.545Z,70.58
2017-07-10T01:58:25.472Z,70.58
2017-07-10T01:59:34.390Z,70.58
2017-07-10T02:00:43.307Z,70.78
2017-07-10T02:01:52.232Z,70.97
2017-07-10T02:03:01.144Z,71.55
2017-07-10T02:04:10.065Z,71.06
2017-07-10T02:05:18.985Z,71.16
2017-07-10T02:06:27.904Z,71.64
2017-07-10T02:07:36.837Z,71.73
2017-07-10T02:08:45.918Z,71.06
2017-07-10T02:09:54.836Z,71.55
2017-07-10T02:11:03.754Z,71.16
2017-07-10T02:12:13.002Z,71.16
2017-07-10T02:13:21.928Z,70.78
2017-07-10T02:14:30.849Z,70.58
2017-07-10T02:15:39.769Z,70.68
2017-07-10T02:16:48.694Z,70.58
2017-07-10T02:17:57.620Z,70.87
2017-07-10T02:19:06.543Z,70.87
2017-07-10T02:20:15.470Z,70.87
2017-07-10T02:21:24.391Z,70.49
2017-07-10T02:22:33.309Z,70.78
2017-07-10T02:23:42.228Z,71.35
2017-07-10T02:24:51.151Z,71.64
2017-07-10T02:26:00.075Z,71.83
2017-07-10T02:27:09.076Z,71.16
2017-07-10T02:28:17.992Z,71.45
2017-07-10T02:29:26.920Z,71.55
2017-07-10T02:30:35.841Z,71.25
2017-07-10T02:31:44.754Z,71.25
2017-07-10T02:32:53.674Z,71.73
2017-07-10T02:34:02.919Z,71.55
2017-07-10T02:35:11.838Z,71.35
2017-07-10T02:36:20.760Z,71.35
2017-07-10T02:37:29.771Z,71.73
2017-07-10T02:38:38.694Z,71.64
2017-07-10T02:39:47.613Z,72.02
2017-07-10T02:40:56.527Z,72.28
2017-07-10T02:42:05.448Z,71.55
2017-07-10T02:43:14.362Z,71.73
2017-07-10T02:44:23.286Z,71.55
2017-07-10T02:45:32.208Z,72.12
2017-07-10T02:46:41.124Z,72.02
2017-07-10T02:47:50.047Z,72.02
2017-07-10T02:48:58.969Z,72.22
2017-07-10T02:50:07.886Z,72.6
2017-07-10T02:51:16.807Z,72.02
2017-07-10T02:52:25.729Z,72.56
2017-07-10T02:53:34.650Z,72.6
2017-07-10T02:54:43.565Z,72.37
2017-07-10T02:55:52.819Z,72.41
2017-07-10T02:57:01.737Z,72.47
2017-07-10T02:58:10.662Z,72.31
2017-07-10T02:59:19.578Z,72.37
2017-07-10T03:00:28.492Z,72.5
2017-07-10T03:01:37.408Z,72.47
2017-07-10T03:02:46.334Z,72.18
2017-07-10T03:03:55.249Z,72.66
2017-07-10T03:05:04.177Z,72.18
2017-07-10T03:06:13.186Z,72.31
2017-07-10T03:07:22.111Z,72.56
2017-07-10T03:08:31.036Z,72.37
2017-07-10T03:09:39.957Z,72.85
2017-07-10T03:10:48.890Z,72.85
2017-07-10T03:11:57.800Z,72.75
2017-07-10T03:13:06.718Z,72.47
2017-07-10T03:14:15.720Z,72.18
2017-07-10T03:15:24.641Z,72.28
2017-07-10T03:16:33.561Z,73.04
2017-07-10T03:17:42.485Z,73.24
2017-07-10T03:18:51.405Z,72.85
2017-07-10T03:20:00.325Z,73.04
2017-07-10T03:21:09.245Z,72.95
2017-07-10T03:22:18.172Z,72.85
2017-07-10T03:23:27.099Z,73.14
2017-07-10T03:24:36.018Z,73.24
2017-07-10T03:25:44.937Z,72.95
2017-07-10T03:26:53.854Z,72.95
2017-07-10T03:28:02.776Z,72.85
2017-07-10T03:29:11.706Z,72.95
2017-07-10T03:30:20.620Z,73.04
2017-07-10T03:31:29.543Z,72.56
2017-07-10T03:32:38.469Z,72.28
2017-07-10T03:33:47.394Z,73.04
2017-07-10T03:34:56.313Z,73.04
2017-07-10T03:36:05.228Z,72.85
2017-07-10T03:37:14.152Z,73.14
2017-07-10T03:38:23.075Z,72.47
2017-07-10T03:39:32.000Z,72.47
2017-07-10T03:40:40.918Z,73.24
2017-07-10T03:41:49.834Z,72.75
2017-07-10T03:42:59.092Z,72.85
2017-07-10T03:44:08.007Z,73.04
2017-07-10T03:45:16.929Z,73.14
2017-07-10T03:46:26.149Z,73.24
2017-07-10T03:47:35.072Z,73.14
2017-07-10T03:48:43.994Z,73.04
2017-07-10T03:49:52.923Z,72.95
2017-07-10T03:51:01.846Z,73.04
2017-07-10T03:52:10.768Z,73.14
2017-07-10T03:53:19.685Z,73.24
2017-07-10T03:54:28.604Z,73.33
2017-07-10T03:55:37.525Z,72.95
2017-07-10T03:56:46.446Z,72.85
2017-07-10T03:57:55.366Z,72.66
2017-07-10T03:59:04.283Z,72.95
2017-07-10T04:00:13.201Z,72.85
2017-07-10T04:01:22.125Z,73.14
2017-07-10T04:02:31.051Z,73.14
2017-07-10T04:03:39.970Z,72.47
2017-07-10T04:04:48.892Z,72.69
2017-07-10T04:05:57.809Z,72.41
2017-07-10T04:07:06.727Z,73.04
2017-07-10T04:08:15.650Z,73.18
2017-07-10T04:09:24.575Z,72.85
2017-07-10T04:10:33.500Z,73.08
2017-07-10T04:11:42.416Z,72.47
2017-07-10T04:12:51.337Z,72.66
2017-07-10T04:14:00.261Z,72.56
2017-07-10T04:15:09.177Z,72.5
2017-07-10T04:16:18.104Z,72.75
2017-07-10T04:17:27.027Z,72.5
2017-07-10T04:18:35.950Z,72.75
2017-07-10T04:19:44.873Z,72.79
2017-07-10T04:20:53.794Z,72.75
2017-07-10T04:22:02.716Z,72.6
2017-07-10T04:23:11.634Z,72.6
2017-07-10T04:24:20.553Z,72.28
2017-07-10T04:25:29.474Z,73.27
2017-07-10T04:26:38.388Z,72.89
2017-07-10T04:27:47.309Z,73.08
2017-07-10T04:28:56.229Z,72.89
2017-07-10T04:30:05.143Z,72.79
2017-07-10T04:31:14.075Z,73.08
2017-07-10T04:32:22.993Z,72.89
2017-07-10T04:33:31.915Z,72.99
2017-07-10T04:34:40.835Z,72.99
2017-07-10T04:35:49.755Z,72.89
2017-07-10T04:36:58.675Z,72.5
2017-07-10T04:38:07.598Z,72.41
2017-07-10T04:39:16.523Z,72.5
2017-07-10T04:40:25.533Z,72.89
2017-07-10T04:41:34.796Z,72.89
2017-07-10T04:42:43.719Z,72.5
2017-07-10T04:43:52.643Z,73.18
2017-07-10T04:45:01.562Z,72.89
2017-07-10T04:46:10.482Z,73.27
2017-07-10T04:47:19.407Z,72.5
2017-07-10T04:48:28.334Z,72.6
2017-07-10T04:49:37.338Z,72.99
2017-07-10T04:50:46.256Z,72.89
2017-07-10T04:51:55.172Z,72.5
2017-07-10T04:53:04.097Z,72.92
2017-07-10T04:54:13.101Z,72.64
2017-07-10T04:55:22.024Z,72.34
2017-07-10T04:56:30.944Z,72.34
2017-07-10T04:57:39.858Z,72.44
2017-07-10T04:58:48.782Z,72.25
2017-07-10T04:59:57.713Z,72.34
2017-07-10T05:01:06.631Z,72.25
2017-07-10T05:02:15.546Z,71.96
2017-07-10T05:03:24.472Z,71.96
2017-07-10T05:04:33.394Z,72.16
2017-07-10T05:05:42.314Z,71.87
2017-07-10T05:06:51.233Z,72.16
2017-07-10T05:08:00.156Z,71.96
2017-07-10T05:09:09.086Z,71.67
2017-07-10T05:10:18.342Z,71.67
2017-07-10T05:11:27.263Z,71.91
2017-07-10T05:12:36.183Z,71.81
2017-07-10T05:13:45.104Z,71.71
2017-07-10T05:14:54.030Z,72
2017-07-10T05:16:02.960Z,71.81
2017-07-10T05:17:11.883Z,71.91
2017-07-10T05:18:20.800Z,71.71
2017-07-10T05:19:29.719Z,71.81
2017-07-10T05:20:38.642Z,71.42
2017-07-10T05:21:47.562Z,70.94
2017-07-10T05:22:56.479Z,70.84
2017-07-10T05:24:05.391Z,70.65
2017-07-10T05:25:14.311Z,70.94
2017-07-10T05:26:23.233Z,71.04
2017-07-10T05:27:32.153Z,70.78
2017-07-10T05:28:41.164Z,70.84
2017-07-10T05:29:50.084Z,70.56
2017-07-10T05:30:59.000Z,70.56
2017-07-10T05:32:07.920Z,70.78
2017-07-10T05:33:16.845Z,70.88
2017-07-10T05:34:25.766Z,70.98
2017-07-10T05:35:34.687Z,70.88
2017-07-10T05:36:43.653Z,70.88
2017-07-10T05:37:52.523Z,70.98
2017-07-10T05:39:01.445Z,71.08
2017-07-10T05:40:10.370Z,70.98
2017-07-10T05:41:19.630Z,71.08
2017-07-10T05:42:28.556Z,70.88
2017-07-10T05:43:37.480Z,70.98
2017-07-10T05:44:46.410Z,70.88
2017-07-10T05:45:55.324Z,70.68
2017-07-10T05:47:04.245Z,70.98
2017-07-10T05:48:13.170Z,71.08
2017-07-10T05:49:22.100Z,71.08
2017-07-10T05:50:31.030Z,70.78
2017-07-10T05:51:39.949Z,71.08
2017-07-10T05:52:48.877Z,70.72
2017-07-10T05:53:57.807Z,71.01
2017-07-10T05:55:06.726Z,70.72
2017-07-10T05:56:15.648Z,70.92
2017-07-10T05:57:24.571Z,70.62
2017-07-10T05:58:33.497Z,70.53
2017-07-10T05:59:42.416Z,70.53
2017-07-10T06:00:51.346Z,70.53
2017-07-10T06:02:00.260Z,70.62
2017-07-10T06:03:09.181Z,70.53
2017-07-10T06:04:18.100Z,70.53
2017-07-10T06:05:27.018Z,70.72
2017-07-10T06:06:35.941Z,70.47
2017-07-10T06:07:44.864Z,70.28
2017-07-10T06:08:53.784Z,70.56
2017-07-10T06:10:02.704Z,70.09
2017-07-10T06:11:11.959Z,69.7
2017-07-10T06:12:20.882Z,69.89
2017-07-10T06:13:29.807Z,69.79
2017-07-10T06:14:38.726Z,70.28
2017-07-10T06:15:47.647Z,70.09
2017-07-10T06:16:56.572Z,69.99
2017-07-10T06:18:05.490Z,69.99
2017-07-10T06:19:14.402Z,70.09
2017-07-10T06:20:23.328Z,69.93
2017-07-10T06:21:32.337Z,70.09
2017-07-10T06:22:41.263Z,70.12
2017-07-10T06:23:50.178Z,70.02
2017-07-10T06:24:59.191Z,69.79
2017-07-10T06:26:08.116Z,69.93
2017-07-10T06:27:17.036Z,69.89
2017-07-10T06:28:25.955Z,69.89
2017-07-10T06:29:34.877Z,69.83
2017-07-10T06:30:43.801Z,69.79
2017-07-10T06:31:52.723Z,69.93
2017-07-10T06:33:01.641Z,70.21
2017-07-10T06:34:10.554Z,70.31
2017-07-10T06:35:19.479Z,70.12
2017-07-10T06:36:28.403Z,69.64
2017-07-10T06:37:37.413Z,70.21
2017-07-10T06:38:46.341Z,69.54
2017-07-10T06:39:55.270Z,69.54
2017-07-10T06:41:04.199Z,69.64
2017-07-10T06:42:13.120Z,69.67
2017-07-10T06:43:22.044Z,69.48
2017-07-10T06:44:30.963Z,69.45
2017-07-10T06:45:39.884Z,69.45
2017-07-10T06:46:48.807Z,69.87
2017-07-10T06:47:57.823Z,69.77
2017-07-10T06:49:06.740Z,69.57
2017-07-10T06:50:15.658Z,69.67
2017-07-10T06:51:24.579Z,69.77
2017-07-10T06:52:33.497Z,69.09
2017-07-10T06:53:42.422Z,69.48
2017-07-10T06:54:51.344Z,69.38
2017-07-10T06:56:00.267Z,69.38
2017-07-10T06:57:09.185Z,69.19
2017-07-10T06:58:18.107Z,69.48
2017-07-10T06:59:27.030Z,69.67
2017-07-10T07:00:35.960Z,69.77
2017-07-10T07:01:44.972Z,69.77
2017-07-10T07:02:53.900Z,69.67
2017-07-10T07:04:02.828Z,69.77
2017-07-10T07:05:12.082Z,69.57
2017-07-10T07:06:21.006Z,69.77
2017-07-10T07:07:29.923Z,69.77
2017-07-10T07:08:38.852Z,69.67
2017-07-10T07:09:47.775Z,69.67
2017-07-10T07:10:56.694Z,69.57
2017-07-10T07:12:05.613Z,69.77
2017-07-10T07:13:14.534Z,69.67
2017-07-10T07:14:23.468Z,69.57
2017-07-10T07:15:32.384Z,69.77
2017-07-10T07:16:41.305Z,69.87
2017-07-10T07:17:50.230Z,70.06
2017-07-10T07:18:59.150Z,69.96
2017-07-10T07:20:08.076Z,70.06
2017-07-10T07:21:17.002Z,70.15
2017-07-10T07:22:25.924Z,70.15
2017-07-10T07:23:34.842Z,69.77
2017-07-10T07:24:43.857Z,69.96
2017-07-10T07:25:52.769Z,70.15
2017-07-10T07:27:01.693Z,70.06
2017-07-10T07:28:10.616Z,69.9
2017-07-10T07:29:19.633Z,70.19
2017-07-10T07:30:28.566Z,70.09
2017-07-10T07:31:37.484Z,69.9
2017-07-10T07:32:46.407Z,69.61
2017-07-10T07:33:55.328Z,69.51
2017-07-10T07:35:04.582Z,70.09
2017-07-10T07:36:13.588Z,70.09
2017-07-10T07:37:22.509Z,70.28
2017-07-10T07:38:31.435Z,69.9
2017-07-10T07:39:40.354Z,69.8
2017-07-10T07:40:49.279Z,69.71
2017-07-10T07:41:58.202Z,69.9
2017-07-10T07:43:07.122Z,70
2017-07-10T07:44:16.048Z,70.09
2017-07-10T07:45:24.973Z,69.61
2017-07-10T07:46:33.893Z,69.61
2017-07-10T07:47:42.817Z,69.51
2017-07-10T07:48:51.737Z,69.8
2017-07-10T07:50:00.661Z,69.71
2017-07-10T07:51:09.588Z,69.61
2017-07-10T07:52:18.513Z,69.8
2017-07-10T07:53:27.430Z,69.51
2017-07-10T07:54:36.353Z,69.61
2017-07-10T07:55:45.279Z,69.61
2017-07-10T07:56:54.212Z,69.61
2017-07-10T07:58:03.135Z,69.74
2017-07-10T07:59:12.150Z,69.61
2017-07-10T08:00:21.074Z,69.55
2017-07-10T08:01:30.004Z,70.19
2017-07-10T08:02:38.924Z,69.9
2017-07-10T08:03:48.178Z,70.28
2017-07-10T08:04:57.095Z,70.28
2017-07-10T08:06:06.019Z,70
2017-07-10T08:07:14.942Z,70.19
2017-07-10T08:08:23.863Z,70
2017-07-10T08:09:32.786Z,70.19
2017-07-10T08:10:41.711Z,70.57
2017-07-10T08:11:50.635Z,70.48
2017-07-10T08:12:59.557Z,70.57
2017-07-10T08:14:08.477Z,70.38
2017-07-10T08:15:17.401Z,70.57
2017-07-10T08:16:26.324Z,70.86
2017-07-10T08:17:35.247Z,70.28
2017-07-10T08:18:44.167Z,70.76
2017-07-10T08:19:53.088Z,70.96
2017-07-10T08:21:02.003Z,71.15
2017-07-10T08:22:10.927Z,71.06
2017-07-10T08:23:19.851Z,71.15
2017-07-10T08:24:28.778Z,71.54
2017-07-10T08:25:37.701Z,72.02
2017-07-10T08:26:46.626Z,71.64
2017-07-10T08:27:55.549Z,71.64
2017-07-10T08:29:04.466Z,72.02
2017-07-10T08:30:13.392Z,71.83
2017-07-10T08:31:22.319Z,72.12
2017-07-10T08:32:31.239Z,72.85
2017-07-10T08:33:40.160Z,72.6
2017-07-10T08:34:49.081Z,72.6
2017-07-10T08:35:58.005Z,72.89
2017-07-10T08:37:06.934Z,73.43
2017-07-10T08:38:15.865Z,73.53
2017-07-10T08:39:24.793Z,73.72
2017-07-10T08:40:33.711Z,73.43
2017-07-10T08:41:42.635Z,73.82
2017-07-10T08:42:51.556Z,74.01
2017-07-10T08:44:00.474Z,74.88
2017-07-10T08:45:09.394Z,76.61
2017-07-10T08:46:18.320Z,78.92
2017-07-10T08:47:27.243Z,80.94
2017-07-10T08:48:36.164Z,82.1
2017-07-10T08:49:45.091Z,83.22
2017-07-10T08:50:54.011Z,84.09
2017-07-10T08:52:02.933Z,85.14
2017-07-10T08:53:11.856Z,87.07
2017-07-10T08:54:20.775Z,88.09
2017-07-10T08:55:29.695Z,89.15
2017-07-10T08:56:38.621Z,91.07
2017-07-10T08:57:47.543Z,93.57
2017-07-10T08:58:56.465Z,95.79
2017-07-10T09:00:05.388Z,96.61
2017-07-10T09:01:14.303Z,97.38
2017-07-10T09:02:23.227Z,98.05
2017-07-10T09:03:32.153Z,98.92
2017-07-10T09:04:41.072Z,99.4
2017-07-10T09:05:49.998Z,99.99
2017-07-10T09:06:58.926Z,99.99
2017-07-10T09:08:07.847Z,99.99
2017-07-10T09:09:16.772Z,99.99
2017-07-10T09:10:25.694Z,99.99
2017-07-10T09:11:34.611Z,99.99
2017-07-10T09:12:43.538Z,99.99
2017-07-10T09:13:52.466Z,99.99
2017-07-10T09:15:01.391Z,99.99
2017-07-10T09:16:10.322Z,99.99
2017-07-10T09:17:19.246Z,99.99
2017-07-10T09:18:28.168Z,99.99
2017-07-10T09:19:37.091Z,99.99
2017-07-10T09:20:46.021Z,99.99
2017-07-10T09:21:54.942Z,99.99
2017-07-10T09:23:03.862Z,99.99
2017-07-10T09:24:12.786Z,99.99
2017-07-10T09:25:22.037Z,99.99
2017-07-10T09:26:30.960Z,99.99
2017-07-10T09:27:40.240Z,99.99
2017-07-10T09:28:49.165Z,99.99
2017-07-10T09:29:58.420Z,99.99
2017-07-10T09:31:07.672Z,99.99
2017-07-10T09:32:16.588Z,99.99
2017-07-10T09:33:25.509Z,99.99
2017-07-10T09:34:34.431Z,99.99
2017-07-10T09:35:43.343Z,99.99
2017-07-10T09:36:52.271Z,99.99
2017-07-10T09:38:01.190Z,99.99
2017-07-10T09:39:10.114Z,99.99
2017-07-10T09:40:19.037Z,99.99
2017-07-10T09:41:27.962Z,99.99
2017-07-10T09:42:36.886Z,99.99
2017-07-10T09:43:45.797Z,99.99
2017-07-10T09:44:54.715Z,99.99
2017-07-10T09:46:03.632Z,99.99
2017-07-10T09:47:12.549Z,99.99
2017-07-10T09:48:21.467Z,99.99
2017-07-10T09:49:30.389Z,99.99
2017-07-10T09:50:39.303Z,99.99
2017-07-10T09:51:48.226Z,99.99
2017-07-10T09:52:57.144Z,99.99
2017-07-10T09:54:06.154Z,99.99
2017-07-10T09:55:15.077Z,99.99
2017-07-10T09:56:24.007Z,99.99
2017-07-10T09:57:32.922Z,99.99
2017-07-10T09:58:41.839Z,99.99
2017-07-10T09:59:50.755Z,99.99
2017-07-10T10:00:59.670Z,99.99
2017-07-10T10:02:08.592Z,99.99
2017-07-10T10:03:17.510Z,99.99
2017-07-10T10:04:26.433Z,99.99
2017-07-10T10:05:35.356Z,99.99
2017-07-10T10:06:44.273Z,99.99
2017-07-10T10:07:53.194Z,99.99
2017-07-10T10:09:02.120Z,99.99
2017-07-10T10:10:11.042Z,99.99
2017-07-10T10:11:19.957Z,99.99
2017-07-10T10:12:29.215Z,99.99
2017-07-10T10:13:38.140Z,99.99
2017-07-10T10:14:47.061Z,99.99
2017-07-10T10:15:55.978Z,99.99
2017-07-10T10:17:04.898Z,99.99
2017-07-10T10:18:13.818Z,99.99
2017-07-10T10:19:22.736Z,99.99
2017-07-10T10:20:31.656Z,99.99
2017-07-10T10:21:40.572Z,99.99
2017-07-10T10:22:49.496Z,99.99
2017-07-10T10:23:58.433Z,99.99
2017-07-10T10:25:07.686Z,99.99
2017-07-10T10:26:16.611Z,99.99
2017-07-10T10:27:25.531Z,99.99
2017-07-10T10:28:34.454Z,99.99
2017-07-10T10:29:43.372Z,99.99
2017-07-10T10:30:52.292Z,99.99
2017-07-10T10:32:01.212Z,99.99
2017-07-10T10:33:10.129Z,99.99
2017-07-10T10:34:19.054Z,99.99
2017-07-10T10:35:27.976Z,99.99
2017-07-10T10:36:36.898Z,99.99
2017-07-10T10:37:45.818Z,99.99
2017-07-10T10:38:54.741Z,99.99
2017-07-10T10:40:03.665Z,99.99
2017-07-10T10:41:12.587Z,99.99
2017-07-10T10:42:21.844Z,99.99
2017-07-10T10:43:30.763Z,99.99
2017-07-10T10:44:39.685Z,99.99
2017-07-10T10:45:48.602Z,99.99
2017-07-10T10:46:57.527Z,99.99
2017-07-10T10:48:06.449Z,99.99
2017-07-10T10:49:15.366Z,99.99
2017-07-10T10:50:24.284Z,99.99
2017-07-10T10:51:33.209Z,99.99
2017-07-10T10:52:42.138Z,99.99
2017-07-10T10:53:51.055Z,99.99
2017-07-10T10:54:59.973Z,99.99
2017-07-10T10:56:08.896Z,99.99
2017-07-10T10:57:17.809Z,99.99
2017-07-10T10:58:26.726Z,99.99
2017-07-10T10:59:35.650Z,99.99
2017-07-10T11:00:44.569Z,99.99
2017-07-10T11:01:53.485Z,99.99
2017-07-10T11:03:02.404Z,99.99
2017-07-10T11:04:11.319Z,99.99
2017-07-10T11:05:20.241Z,99.99
2017-07-10T11:06:29.162Z,99.99
2017-07-10T11:07:38.086Z,99.99
2017-07-10T11:08:47.004Z,99.99
2017-07-10T11:09:55.927Z,99.99
2017-07-10T11:11:04.853Z,99.99
2017-07-10T11:12:13.776Z,99.99
2017-07-10T11:13:22.789Z,99.99
2017-07-10T11:14:31.711Z,99.99
2017-07-10T11:15:40.635Z,99.99
2017-07-10T11:16:49.578Z,99.99
2017-07-10T11:17:58.500Z,99.99
2017-07-10T11:19:07.411Z,99.99
2017-07-10T11:20:16.339Z,99.99
2017-07-10T11:21:25.258Z,99.99
2017-07-10T11:22:34.185Z,99.99
2017-07-10T11:23:43.110Z,99.99
2017-07-10T11:24:52.037Z,99.99
2017-07-10T11:26:00.951Z,99.99
2017-07-10T11:27:09.876Z,99.99
2017-07-10T11:28:18.799Z,99.99
2017-07-10T11:29:27.729Z,99.99
2017-07-10T11:30:36.652Z,99.99
2017-07-10T11:31:45.575Z,99.99
2017-07-10T11:32:54.498Z,99.99
2017-07-10T11:34:03.465Z,99.99
2017-07-10T11:35:12.328Z,99.99
2017-07-10T11:36:21.243Z,99.99
2017-07-10T11:37:30.161Z,99.99
2017-07-10T11:38:39.089Z,99.99
2017-07-10T11:39:48.009Z,99.99
2017-07-10T11:40:56.950Z,99.99
2017-07-10T11:42:06.046Z,99.99
2017-07-10T11:43:14.970Z,99.99
2017-07-10T11:44:23.922Z,99.99
2017-07-10T11:45:32.845Z,99.99
2017-07-10T11:46:41.769Z,99.99
2017-07-10T11:47:50.686Z,99.99
2017-07-10T11:48:59.603Z,99.99
2017-07-10T11:50:08.533Z,99.99
2017-07-10T11:51:17.459Z,99.99
2017-07-10T11:52:26.818Z,99.99
2017-07-10T11:53:36.099Z,99.99
2017-07-10T11:54:45.019Z,99.99
2017-07-10T11:55:53.935Z,99.99
2017-07-10T11:57:02.862Z,99.99
2017-07-10T11:58:11.789Z,99.99
2017-07-10T11:59:20.712Z,99.99
2017-07-10T12:00:29.730Z,99.99
2017-07-10T12:01:38.981Z,99.99
2017-07-10T12:02:47.905Z,99.99
2017-07-10T12:03:56.831Z,99.99
2017-07-10T12:05:05.748Z,99.99
2017-07-10T12:06:14.666Z,99.99
2017-07-10T12:07:23.588Z,99.99
2017-07-10T12:08:32.505Z,99.99
2017-07-10T12:09:41.433Z,99.99
2017-07-10T12:10:50.353Z,99.99
2017-07-10T12:11:59.276Z,99.99
2017-07-10T12:13:08.206Z,99.99
2017-07-10T12:14:17.125Z,99.99
2017-07-10T12:15:26.039Z,99.99
2017-07-10T12:16:34.960Z,99.99
2017-07-10T12:17:44.213Z,99.99
2017-07-10T12:18:53.217Z,99.99
2017-07-10T12:20:02.140Z,99.99
2017-07-10T12:21:11.059Z,99.99
2017-07-10T12:22:19.977Z,99.99
2017-07-10T12:23:28.894Z,99.99
2017-07-10T12:24:37.816Z,99.99
2017-07-10T12:25:46.732Z,99.99
2017-07-10T12:26:55.657Z,99.99
2017-07-10T12:28:04.575Z,99.99
2017-07-10T12:29:13.493Z,99.99
2017-07-10T12:30:22.751Z,99.99
2017-07-10T12:31:31.672Z,99.99
2017-07-10T12:32:40.588Z,99.99
2017-07-10T12:33:49.511Z,99.99
2017-07-10T12:34:58.428Z,99.99
2017-07-10T12:36:07.344Z,99.99
2017-07-10T12:37:16.263Z,99.99
2017-07-10T12:38:25.176Z,99.99
2017-07-10T12:39:34.099Z,99.99
2017-07-10T12:40:43.015Z,99.99
2017-07-10T12:41:52.268Z,99.99
2017-07-10T12:43:01.197Z,99.99
2017-07-10T12:44:10.116Z,99.99
2017-07-10T12:45:19.038Z,99.99
2017-07-10T12:46:27.956Z,99.99
2017-07-10T12:47:36.872Z,99.99
2017-07-10T12:48:45.789Z,99.99
2017-07-10T12:49:54.715Z,99.99
2017-07-10T12:51:03.632Z,99.99
2017-07-10T12:52:12.882Z,99.99
2017-07-10T12:53:21.808Z,99.99
2017-07-10T12:54:30.817Z,99.99
2017-07-10T12:55:39.730Z,99.99
2017-07-10T12:56:48.641Z,99.99
2017-07-10T12:57:57.569Z,99.99
2017-07-10T12:59:06.492Z,99.99
2017-07-10T13:00:15.412Z,99.99
2017-07-10T13:01:24.329Z,99.99
2017-07-10T13:02:33.248Z,99.99
2017-07-10T13:03:42.161Z,99.99
2017-07-10T13:04:51.086Z,99.99
2017-07-10T13:06:00.009Z,99.99
2017-07-10T13:07:08.933Z,99.99
2017-07-10T13:08:17.862Z,99.99
2017-07-10T13:09:26.781Z,99.99
2017-07-10T13:10:35.702Z,99.99
2017-07-10T13:11:44.627Z,99.99
2017-07-10T13:12:53.552Z,99.99
2017-07-10T13:14:02.555Z,99.99
2017-07-10T13:15:11.472Z,99.99
2017-07-10T13:16:20.400Z,99.99
2017-07-10T13:17:29.315Z,99.99
2017-07-10T13:18:38.232Z,99.99
2017-07-10T13:19:47.156Z,99.99
2017-07-10T13:20:56.078Z,99.99
2017-07-10T13:22:05.334Z,99.99
2017-07-10T13:23:14.342Z,99.99
2017-07-10T13:24:23.264Z,99.99
2017-07-10T13:25:32.183Z,99.99
2017-07-10T13:26:41.104Z,99.99
2017-07-10T13:27:50.025Z,99.99
2017-07-10T13:28:58.947Z,99.99
2017-07-10T13:30:07.868Z,99.99
2017-07-10T13:31:16.794Z,99.99
2017-07-10T13:32:25.715Z,99.99
2017-07-10T13:33:34.642Z,99.99
2017-07-10T13:34:43.560Z,99.99
2017-07-10T13:35:52.489Z,99.99
2017-07-10T13:37:01.417Z,99.99
2017-07-10T13:38:10.672Z,99.99
2017-07-10T13:39:19.593Z,99.99
2017-07-10T13:40:28.514Z,99.99
2017-07-10T13:41:37.432Z,99.99
2017-07-10T13:42:46.354Z,99.99
2017-07-10T13:43:55.272Z,99.99
2017-07-10T13:45:04.198Z,99.99
2017-07-10T13:46:13.122Z,99.99
2017-07-10T13:47:22.052Z,99.99
2017-07-10T13:48:30.979Z,99.99
2017-07-10T13:49:39.907Z,99.99
2017-07-10T13:50:48.824Z,99.99
2017-07-10T13:51:57.831Z,99.99
2017-07-10T13:53:06.750Z,99.99
2017-07-10T13:54:15.670Z,99.99
2017-07-10T13:55:24.602Z,99.99
2017-07-10T13:56:33.531Z,99.99
2017-07-10T13:57:42.875Z,99.99
2017-07-10T13:58:51.786Z,99.99
2017-07-10T14:00:00.809Z,99.99
2017-07-10T14:01:09.726Z,99.99
2017-07-10T14:02:18.639Z,99.99
2017-07-10T14:03:27.563Z,99.99
2017-07-10T14:04:36.486Z,99.99
2017-07-10T14:05:45.402Z,99.99
2017-07-10T14:06:54.327Z,99.99
2017-07-10T14:08:03.250Z,99.99
2017-07-10T14:09:12.170Z,99.99
2017-07-10T14:10:21.097Z,99.99
2017-07-10T14:11:30.016Z,99.99
2017-07-10T14:12:38.936Z,99.99
2017-07-10T14:13:47.855Z,99.99
2017-07-10T14:14:56.783Z,99.99
2017-07-10T14:16:05.712Z,99.99
2017-07-10T14:17:14.633Z,99.99
2017-07-10T14:18:23.547Z,99.99
2017-07-10T14:19:32.471Z,99.99
2017-07-10T14:20:41.393Z,99.99
2017-07-10T14:21:50.314Z,99.99
2017-07-10T14:22:59.235Z,99.99
2017-07-10T14:24:08.154Z,99.99
2017-07-10T14:25:17.084Z,99.99
2017-07-10T14:26:26.002Z,99.99
2017-07-10T14:27:34.931Z,99.99
2017-07-10T14:28:43.850Z,99.99
2017-07-10T14:29:52.764Z,99.99
2017-07-10T14:31:01.685Z,99.99
2017-07-10T14:32:10.609Z,99.99
2017-07-10T14:33:19.527Z,99.99
2017-07-10T14:34:28.443Z,99.99
2017-07-10T14:35:37.412Z,99.99
2017-07-10T14:36:46.338Z,99.99
2017-07-10T14:37:55.258Z,99.99
2017-07-10T14:39:04.182Z,99.99
2017-07-10T14:40:13.103Z,99.99
2017-07-10T14:41:22.023Z,99.99
2017-07-10T14:42:30.946Z,99.99
2017-07-10T14:43:39.872Z,99.99
2017-07-10T14:44:48.795Z,99.99
2017-07-10T14:45:57.710Z,99.99
2017-07-10T14:47:06.630Z,99.99
2017-07-10T14:48:15.554Z,99.99
2017-07-10T14:49:24.475Z,99.99
2017-07-10T14:50:33.400Z,99.99